createdAt,value
2023-02-03T00:01:11.010Z,9.76
2023-02-03T00:03:38.108Z,9.76
2023-02-03T00:06:05.269Z,9.75
2023-02-03T00:08:32.535Z,9.79
2023-02-03T00:10:59.995Z,9.72
2023-02-03T00:13:27.230Z,9.74
2023-02-03T00:15:54.273Z,9.77
2023-02-03T00:18:21.232Z,9.78
2023-02-03T00:20:48.164Z,9.74
2023-02-03T00:23:15.183Z,9.77
2023-02-03T00:25:42.112Z,9.75
2023-02-03T00:28:09.091Z,9.79
2023-02-03T00:30:37.165Z,9.77
2023-02-03T00:33:04.715Z,9.75
2023-02-03T00:35:31.676Z,9.75
2023-02-03T00:37:59.146Z,9.74
2023-02-03T00:40:27.534Z,9.75
2023-02-03T00:42:55.029Z,9.74
2023-02-03T00:45:22.329Z,9.75
2023-02-03T00:47:49.391Z,9.80
2023-02-03T00:50:16.779Z,9.77
2023-02-03T00:52:43.799Z,9.78
2023-02-03T00:55:10.764Z,9.81
2023-02-03T00:57:37.732Z,9.78
2023-02-03T01:00:06.193Z,9.82
2023-02-03T01:02:33.197Z,9.83
2023-02-03T01:05:00.184Z,9.84
2023-02-03T01:07:27.267Z,9.85
2023-02-03T01:09:54.191Z,9.89
2023-02-03T01:12:21.082Z,9.86
2023-02-03T01:14:48.108Z,9.87
2023-02-03T01:17:15.016Z,9.83
2023-02-03T01:19:41.924Z,9.85
2023-02-03T01:22:08.997Z,9.84
2023-02-03T01:24:35.891Z,9.84
2023-02-03T01:27:02.828Z,9.84
2023-02-03T01:29:29.781Z,9.78
2023-02-03T01:31:56.826Z,9.79
2023-02-03T01:34:23.800Z,9.79
2023-02-03T01:36:50.833Z,9.77
2023-02-03T01:39:18.321Z,9.79
2023-02-03T01:41:45.559Z,9.81
2023-02-03T01:44:43.606Z,9.74
2023-02-03T01:47:35.655Z,9.72
2023-02-03T01:50:27.788Z,9.72
2023-02-03T01:53:03.777Z,9.74
2023-02-03T01:55:42.527Z,9.75
2023-02-03T01:58:25.713Z,9.76
2023-02-03T02:00:54.239Z,9.75
2023-02-03T02:03:31.251Z,9.73
2023-02-03T02:06:06.548Z,9.76
2023-02-03T02:08:34.242Z,9.75
2023-02-03T02:11:01.805Z,9.78
2023-02-03T02:13:32.423Z,9.75
2023-02-03T02:16:12.050Z,9.76
2023-02-03T02:18:49.595Z,9.78
2023-02-03T02:21:46.939Z,9.80
2023-02-03T02:24:56.852Z,9.78
2023-02-03T02:28:29.299Z,9.78
2023-02-03T02:31:40.267Z,9.86
2023-02-03T02:34:20.324Z,9.87
2023-02-03T02:37:28.092Z,9.88
2023-02-03T02:40:31.484Z,9.93
2023-02-03T02:43:36.699Z,9.90
2023-02-03T02:46:12.739Z,9.93
2023-02-03T02:49:12.131Z,9.94
2023-02-03T02:51:42.179Z,9.96
2023-02-03T02:54:15.519Z,9.96
2023-02-03T02:56:44.925Z,9.98
2023-02-03T02:59:12.751Z,10.00
2023-02-03T03:01:41.270Z,9.94
2023-02-03T03:04:11.521Z,9.98
2023-02-03T03:06:54.214Z,9.99
2023-02-03T03:09:41.880Z,9.98
2023-02-03T03:12:22.104Z,9.96
2023-02-03T03:15:03.674Z,9.95
2023-02-03T03:18:00.558Z,9.96
2023-02-03T03:20:28.999Z,9.95
2023-02-03T03:23:10.587Z,9.98
2023-02-03T03:25:44.265Z,9.98
2023-02-03T03:28:21.451Z,9.99
2023-02-03T03:30:48.541Z,10.01
2023-02-03T03:33:15.641Z,10.00
2023-02-03T03:36:07.754Z,10.00
2023-02-03T03:38:44.642Z,10.01
2023-02-03T03:41:43.919Z,10.04
2023-02-03T03:44:16.802Z,10.03
2023-02-03T03:47:14.915Z,10.03
2023-02-03T03:49:45.856Z,10.06
2023-02-03T03:52:20.296Z,10.03
2023-02-03T03:54:49.326Z,9.99
2023-02-03T03:57:24.109Z,9.98
2023-02-03T03:59:51.831Z,10.02
2023-02-03T04:02:21.236Z,9.98
2023-02-03T04:04:49.594Z,10.01
2023-02-03T04:07:16.568Z,10.04
2023-02-03T04:09:43.568Z,10.02
2023-02-03T04:12:24.395Z,10.03
2023-02-03T04:14:51.406Z,10.03
2023-02-03T04:17:20.118Z,10.00
2023-02-03T04:19:48.517Z,10.02
2023-02-03T04:22:15.579Z,10.05
2023-02-03T04:24:42.577Z,10.03
2023-02-03T04:27:09.626Z,10.04
2023-02-03T04:29:36.591Z,10.01
2023-02-03T04:32:03.883Z,10.01
2023-02-03T04:34:30.966Z,10.00
2023-02-03T04:36:57.903Z,10.02
2023-02-03T04:39:24.823Z,10.02
2023-02-03T04:41:51.743Z,9.98
2023-02-03T04:44:18.670Z,9.99
2023-02-03T04:46:45.611Z,10.00
2023-02-03T04:49:12.647Z,9.99
2023-02-03T04:51:39.611Z,10.03
2023-02-03T04:54:06.792Z,10.02
2023-02-03T04:56:33.705Z,10.07
2023-02-03T04:59:00.647Z,10.02
2023-02-03T05:01:27.869Z,10.04
2023-02-03T05:03:54.978Z,10.06
2023-02-03T05:06:28.736Z,10.03
2023-02-03T05:08:55.993Z,10.04
2023-02-03T05:11:23.193Z,10.05
2023-02-03T05:13:50.478Z,10.05
2023-02-03T05:16:17.568Z,10.04
2023-02-03T05:18:44.552Z,10.03
2023-02-03T05:21:11.619Z,10.01
2023-02-03T05:23:38.594Z,10.05
2023-02-03T05:26:05.623Z,10.03
2023-02-03T05:28:32.637Z,10.05
2023-02-03T05:31:01.649Z,10.04
2023-02-03T05:33:29.460Z,10.06
2023-02-03T05:35:56.795Z,10.01
2023-02-03T05:38:25.002Z,10.03
2023-02-03T05:41:11.401Z,10.02
2023-02-03T05:43:38.900Z,10.00
2023-02-03T05:46:07.471Z,10.05
2023-02-03T05:48:34.898Z,10.05
2023-02-03T05:51:01.851Z,10.10
2023-02-03T05:53:28.926Z,10.02
2023-02-03T05:55:56.053Z,10.05
2023-02-03T05:58:23.013Z,10.04
2023-02-03T06:00:50.023Z,10.08
2023-02-03T06:03:17.110Z,10.06
2023-02-03T06:05:44.318Z,10.06
2023-02-03T06:08:11.706Z,10.03
2023-02-03T06:10:38.872Z,10.02
2023-02-03T06:13:15.300Z,10.03
2023-02-03T06:15:42.917Z,10.09
2023-02-03T06:18:10.124Z,10.08
2023-02-03T06:20:37.011Z,10.07
2023-02-03T06:23:04.016Z,10.08
2023-02-03T06:25:32.701Z,10.07
2023-02-03T06:27:59.998Z,10.12
2023-02-03T06:30:27.579Z,10.06
2023-02-03T06:32:55.034Z,10.04
2023-02-03T06:35:21.966Z,10.09
2023-02-03T06:37:48.883Z,10.05
2023-02-03T06:40:15.926Z,10.00
2023-02-03T06:42:47.249Z,10.08
2023-02-03T06:45:15.300Z,10.08
2023-02-03T06:47:44.025Z,11.15
2023-02-03T06:50:14.349Z,11.63
2023-02-03T06:52:41.543Z,11.87
2023-02-03T06:55:08.854Z,11.90
2023-02-03T06:57:35.798Z,12.08
2023-02-03T07:00:03.385Z,12.12
2023-02-03T07:02:30.309Z,12.19
2023-02-03T07:04:57.251Z,12.14
2023-02-03T07:07:24.218Z,12.29
2023-02-03T07:09:51.252Z,12.41
2023-02-03T07:12:18.174Z,12.44
2023-02-03T07:14:45.155Z,12.36
2023-02-03T07:17:12.189Z,12.21
2023-02-03T07:19:39.145Z,12.39
2023-02-03T07:22:06.073Z,12.44
2023-02-03T07:24:33.148Z,12.43
2023-02-03T07:27:00.085Z,12.43
2023-02-03T07:29:27.011Z,12.33
2023-02-03T07:31:54.166Z,12.11
2023-02-03T07:34:21.269Z,12.31
2023-02-03T07:36:48.209Z,12.56
2023-02-03T07:39:15.325Z,12.57
2023-02-03T07:41:42.255Z,12.34
2023-02-03T07:44:09.433Z,12.53
2023-02-03T07:46:39.853Z,12.46
2023-02-03T07:49:06.931Z,12.20
2023-02-03T07:51:33.866Z,11.95
2023-02-03T07:54:00.863Z,11.87
2023-02-03T07:56:27.878Z,12.16
2023-02-03T07:58:54.780Z,12.09
2023-02-03T08:01:21.891Z,12.20
2023-02-03T08:03:48.844Z,12.32
2023-02-03T08:06:15.951Z,12.13
2023-02-03T08:08:43.810Z,12.28
2023-02-03T08:11:11.285Z,12.30
2023-02-03T08:13:38.834Z,12.51
2023-02-03T08:16:06.562Z,12.40
2023-02-03T08:18:33.514Z,12.31
2023-02-03T08:21:00.843Z,12.38
2023-02-03T08:23:27.761Z,12.42
2023-02-03T08:25:54.772Z,12.41
2023-02-03T08:28:21.844Z,12.19
2023-02-03T08:30:48.944Z,12.23
2023-02-03T08:33:16.061Z,12.10
2023-02-03T08:38:32.688Z,11.76
2023-02-03T08:40:59.804Z,11.80
2023-02-03T08:43:26.904Z,11.95
2023-02-03T08:45:53.913Z,12.14
2023-02-03T08:48:21.041Z,12.10
2023-02-03T08:50:52.850Z,11.95
2023-02-03T08:53:20.326Z,12.20
2023-02-03T08:55:47.441Z,12.25
2023-02-03T08:58:14.645Z,12.12
2023-02-03T09:00:42.657Z,12.44
2023-02-03T09:03:09.931Z,12.20
2023-02-03T09:05:37.178Z,12.20
2023-02-03T09:08:04.371Z,12.17
2023-02-03T09:10:31.636Z,12.10
2023-02-03T09:12:58.638Z,12.31
2023-02-03T09:15:26.353Z,12.00
2023-02-03T09:17:55.376Z,12.12
2023-02-03T09:20:23.603Z,12.14
2023-02-03T09:22:50.812Z,12.21
2023-02-03T09:25:18.047Z,12.05
2023-02-03T09:27:45.058Z,12.45
2023-02-03T09:30:13.653Z,12.30
2023-02-03T09:32:40.657Z,12.26
2023-02-03T09:35:07.963Z,12.29
2023-02-03T09:37:35.004Z,12.09
2023-02-03T09:40:02.566Z,12.29
2023-02-03T09:43:07.113Z,12.48
2023-02-03T09:45:34.151Z,12.54
2023-02-03T09:48:12.999Z,12.21
2023-02-03T09:50:42.312Z,12.21
2023-02-03T09:53:33.454Z,12.32
2023-02-03T09:56:00.937Z,12.14
2023-02-03T09:58:34.195Z,11.96
2023-02-03T10:01:10.530Z,12.10
2023-02-03T10:04:02.816Z,11.66
2023-02-03T10:06:46.332Z,11.92
2023-02-03T10:10:06.417Z,11.99
2023-02-03T10:13:12.244Z,12.00
2023-02-03T10:16:01.368Z,11.93
2023-02-03T10:18:40.202Z,12.26
2023-02-03T10:21:19.104Z,12.42
2023-02-03T10:23:48.256Z,12.06
2023-02-03T10:26:26.659Z,12.40
2023-02-03T10:29:16.753Z,12.32
2023-02-03T10:31:46.749Z,12.34
2023-02-03T10:34:19.867Z,12.28
2023-02-03T10:37:05.988Z,11.73
2023-02-03T10:39:46.672Z,11.89
2023-02-03T10:42:14.355Z,12.17
2023-02-03T10:44:57.992Z,12.17
2023-02-03T10:47:35.988Z,12.23
2023-02-03T10:50:24.686Z,12.01
2023-02-03T10:52:51.690Z,11.91
2023-02-03T10:55:22.823Z,11.97
2023-02-03T10:57:50.160Z,11.86
2023-02-03T11:00:22.702Z,12.03
2023-02-03T11:03:21.780Z,12.08
2023-02-03T11:06:13.244Z,12.15
2023-02-03T11:08:49.425Z,12.15
2023-02-03T11:11:28.724Z,12.40
2023-02-03T11:14:12.297Z,12.23
2023-02-03T11:16:41.205Z,12.42
2023-02-03T11:19:21.842Z,12.29
2023-02-03T11:21:56.018Z,12.53
2023-02-03T11:24:33.880Z,12.16
2023-02-03T11:27:16.762Z,12.35
2023-02-03T11:29:55.871Z,12.16
2023-02-03T11:32:36.476Z,12.26
2023-02-03T11:35:38.252Z,12.54
2023-02-03T11:38:05.254Z,12.41
2023-02-03T11:40:34.418Z,12.57
2023-02-03T11:43:25.449Z,12.64
2023-02-03T11:45:54.257Z,12.27
2023-02-03T11:48:35.543Z,12.38
2023-02-03T11:51:12.466Z,12.58
2023-02-03T11:54:00.385Z,12.26
2023-02-03T11:57:01.597Z,11.96
2023-02-03T12:00:16.947Z,12.00
2023-02-03T12:03:17.371Z,12.13
2023-02-03T12:06:13.908Z,12.13
2023-02-03T12:09:11.737Z,12.28
2023-02-03T12:12:04.673Z,12.29
2023-02-03T12:15:15.403Z,12.33
2023-02-03T12:18:53.418Z,12.49
2023-02-03T12:21:47.458Z,12.59
2023-02-03T12:24:53.834Z,12.69
2023-02-03T12:27:53.589Z,12.75
2023-02-03T12:30:45.993Z,12.45
2023-02-03T12:33:30.880Z,12.50
2023-02-03T12:36:11.753Z,12.55
2023-02-03T12:38:52.705Z,12.68
2023-02-03T12:41:36.358Z,12.72
2023-02-03T12:44:31.586Z,12.47
2023-02-03T12:47:34.767Z,12.75
2023-02-03T12:50:31.339Z,12.52
2023-02-03T12:53:12.683Z,12.64
2023-02-03T12:56:07.311Z,12.89
2023-02-03T12:58:52.106Z,12.78
2023-02-03T13:01:34.496Z,12.72
2023-02-03T13:04:19.934Z,12.48
2023-02-03T13:07:09.377Z,12.42
2023-02-03T13:09:56.927Z,12.33
2023-02-03T13:12:34.515Z,12.24
2023-02-03T13:15:28.606Z,12.48
2023-02-03T13:18:21.597Z,12.44
2023-02-03T13:20:48.707Z,12.44
2023-02-03T13:23:16.244Z,12.46
2023-02-03T13:25:54.916Z,12.36
2023-02-03T13:28:33.349Z,12.36
2023-02-03T13:31:24.480Z,12.53
2023-02-03T13:34:05.607Z,12.41
2023-02-03T13:36:50.413Z,12.63
2023-02-03T13:39:23.649Z,12.78
2023-02-03T13:42:27.051Z,12.67
2023-02-03T13:45:08.335Z,12.71
2023-02-03T13:47:35.488Z,12.56
2023-02-03T13:50:28.642Z,12.72
2023-02-03T13:53:15.072Z,12.53
2023-02-03T13:56:04.704Z,12.37
2023-02-03T13:58:36.224Z,12.45
2023-02-03T14:01:03.325Z,12.58
2023-02-03T14:03:30.246Z,12.59
2023-02-03T14:06:01.136Z,12.55
2023-02-03T14:08:28.109Z,12.59
2023-02-03T14:11:35.389Z,12.58
2023-02-03T14:14:08.166Z,12.49
2023-02-03T14:16:44.574Z,12.49
2023-02-03T14:19:20.038Z,12.09
2023-02-03T14:21:55.003Z,12.15
2023-02-03T14:24:22.800Z,12.29
2023-02-03T14:26:55.696Z,12.34
2023-02-03T14:29:30.564Z,12.45
2023-02-03T14:32:10.838Z,12.54
2023-02-03T14:34:50.003Z,12.46
2023-02-03T14:37:31.762Z,12.75
2023-02-03T14:40:23.374Z,12.67
2023-02-03T14:43:20.495Z,12.53
2023-02-03T14:46:17.860Z,12.66
2023-02-03T14:49:19.425Z,12.62
2023-02-03T14:52:07.360Z,12.44
2023-02-03T14:55:41.702Z,12.30
2023-02-03T14:58:56.032Z,12.31
2023-02-03T15:01:36.611Z,12.22
2023-02-03T15:04:12.564Z,12.61
2023-02-03T15:06:41.451Z,12.49
2023-02-03T15:09:38.369Z,12.48
2023-02-03T15:12:26.076Z,12.30
2023-02-03T15:14:54.076Z,12.41
2023-02-03T15:17:28.941Z,12.45
2023-02-03T15:19:56.121Z,12.40
2023-02-03T15:22:27.473Z,12.62
2023-02-03T15:25:04.162Z,12.68
2023-02-03T15:27:33.176Z,12.66
2023-02-03T15:30:23.785Z,12.73
2023-02-03T15:33:05.305Z,12.73
2023-02-03T15:35:35.544Z,12.79
2023-02-03T15:38:08.199Z,13.02
2023-02-03T15:40:57.852Z,13.03
2023-02-03T15:43:40.262Z,13.00
2023-02-03T15:46:28.374Z,13.01
2023-02-03T15:49:18.952Z,12.94
2023-02-03T15:52:19.482Z,12.83
2023-02-03T15:55:04.065Z,13.02
2023-02-03T15:57:34.605Z,13.24
2023-02-03T16:00:24.932Z,13.02
2023-02-03T16:02:53.753Z,11.29
2023-02-03T16:05:30.354Z,11.10
2023-02-03T16:07:57.737Z,11.12
2023-02-03T16:10:33.906Z,11.13
2023-02-03T16:13:35.324Z,11.08
2023-02-03T16:16:22.415Z,11.06
2023-02-03T16:19:04.389Z,11.09
2023-02-03T16:21:56.868Z,11.10
2023-02-03T16:24:37.554Z,11.02
2023-02-03T16:27:26.808Z,11.05
2023-02-03T16:30:34.085Z,10.96
2023-02-03T16:33:35.945Z,11.05
2023-02-03T16:36:32.856Z,11.07
2023-02-03T16:39:28.891Z,11.06
2023-02-03T16:42:17.799Z,11.06
2023-02-03T16:45:07.465Z,11.01
2023-02-03T16:47:53.080Z,11.00
2023-02-03T16:50:42.043Z,11.02
2023-02-03T16:53:19.634Z,10.97
2023-02-03T16:55:47.645Z,10.99
2023-02-03T16:58:15.245Z,10.99
2023-02-03T17:00:44.858Z,10.96
2023-02-03T17:03:16.615Z,10.94
2023-02-03T17:05:46.020Z,10.91
2023-02-03T17:08:16.836Z,10.92
2023-02-03T17:10:45.488Z,10.94
2023-02-03T17:13:12.750Z,10.89
2023-02-03T17:15:48.901Z,10.92
2023-02-03T17:18:16.358Z,10.86
2023-02-03T17:20:45.727Z,10.87
2023-02-03T17:23:13.888Z,10.89
2023-02-03T17:25:40.997Z,10.84
2023-02-03T17:28:09.111Z,10.86
2023-02-03T17:30:36.590Z,10.84
2023-02-03T17:33:12.226Z,10.85
2023-02-03T17:35:44.747Z,10.84
2023-02-03T17:38:14.579Z,10.91
2023-02-03T17:54:38.026Z,10.65
2023-02-03T17:57:05.117Z,10.74
2023-02-03T17:59:34.965Z,10.57
2023-02-03T18:02:02.172Z,10.60
2023-02-03T18:04:29.348Z,10.67
2023-02-03T18:06:56.455Z,10.74
2023-02-03T18:09:23.414Z,10.66
2023-02-03T18:11:50.742Z,10.66
2023-02-03T18:14:18.187Z,10.63
2023-02-03T18:16:45.593Z,10.73
2023-02-03T18:19:15.695Z,10.67
2023-02-03T18:21:44.096Z,10.71
2023-02-03T18:24:13.502Z,10.72
2023-02-03T18:26:52.211Z,10.68
2023-02-03T18:29:19.968Z,10.68
2023-02-03T18:31:48.100Z,10.69
2023-02-03T18:34:16.663Z,10.69
2023-02-03T18:36:44.693Z,10.68
2023-02-03T18:39:12.736Z,10.71
2023-02-03T18:41:40.139Z,10.64
2023-02-03T18:44:07.119Z,10.55
2023-02-03T18:46:34.373Z,10.55
2023-02-03T18:49:01.489Z,10.47
2023-02-03T18:51:31.178Z,10.39
2023-02-03T18:54:00.023Z,10.50
2023-02-03T18:56:35.673Z,10.46
2023-02-03T18:59:10.051Z,10.43
2023-02-03T19:01:39.138Z,10.41
2023-02-03T19:04:07.016Z,10.43
2023-02-03T19:06:35.100Z,10.40
2023-02-03T19:09:04.079Z,10.33
2023-02-03T19:11:31.346Z,10.32
2023-02-03T19:13:58.338Z,10.34
2023-02-03T19:16:25.433Z,10.33
2023-02-03T19:18:53.602Z,10.31
2023-02-03T19:21:20.629Z,10.29
2023-02-03T19:23:47.634Z,10.29
2023-02-03T19:26:14.613Z,10.24
2023-02-03T19:28:41.880Z,10.20
2023-02-03T19:31:15.305Z,10.24
2023-02-03T19:33:42.912Z,10.22
2023-02-03T19:36:11.010Z,10.19
2023-02-03T19:38:38.540Z,10.21
2023-02-03T19:41:07.367Z,10.19
2023-02-03T19:43:34.528Z,10.17
2023-02-03T19:46:02.414Z,10.17
2023-02-03T19:48:29.705Z,10.16
2023-02-03T19:50:57.248Z,10.17
2023-02-03T19:53:27.194Z,10.19
2023-02-03T19:55:54.436Z,10.21
2023-02-03T19:58:21.492Z,10.18
2023-02-03T20:00:48.439Z,10.15
2023-02-03T20:03:17.704Z,10.15
2023-02-03T20:05:44.673Z,10.16
2023-02-03T20:08:14.419Z,10.13
2023-02-03T20:10:44.601Z,10.14
2023-02-03T20:13:15.725Z,10.13
2023-02-03T20:15:42.698Z,10.13
2023-02-03T20:18:09.694Z,10.09
2023-02-03T20:20:37.081Z,10.09
2023-02-03T20:23:04.119Z,10.09
2023-02-03T20:25:31.413Z,10.04
2023-02-03T20:28:01.911Z,10.07
2023-02-03T20:30:29.248Z,10.07
2023-02-03T20:32:56.591Z,10.05
2023-02-03T20:35:25.242Z,10.03
2023-02-03T20:37:53.045Z,10.07
2023-02-03T20:40:23.018Z,10.02
2023-02-03T20:42:52.827Z,10.04
2023-02-03T20:45:23.021Z,10.04
2023-02-03T20:47:51.085Z,10.03
2023-02-03T20:50:31.631Z,10.02
2023-02-03T20:53:01.654Z,10.02
2023-02-03T20:55:29.378Z,10.01
2023-02-03T20:57:56.930Z,9.99
2023-02-03T21:00:26.900Z,9.94
2023-02-03T21:03:12.413Z,10.02
2023-02-03T21:05:43.356Z,9.97
2023-02-03T21:08:19.310Z,9.87
2023-02-03T21:10:48.151Z,9.80
2023-02-03T21:13:28.732Z,9.83
2023-02-03T21:16:04.632Z,9.89
2023-02-03T21:18:40.303Z,9.86
2023-02-03T21:21:39.518Z,9.85
2023-02-03T21:24:25.761Z,9.82
2023-02-03T21:26:53.574Z,9.79
2023-02-03T21:29:28.985Z,9.78
2023-02-03T21:31:56.408Z,9.75
2023-02-03T21:34:35.327Z,9.75
2023-02-03T21:37:20.688Z,9.71
2023-02-03T21:39:49.187Z,9.64
2023-02-03T21:42:43.593Z,9.62
2023-02-03T21:45:22.271Z,9.56
2023-02-03T21:47:52.143Z,9.60
2023-02-03T21:50:40.899Z,9.63
2023-02-03T21:53:10.855Z,9.58
2023-02-03T21:55:40.837Z,9.67
2023-02-03T21:58:25.667Z,9.60
2023-02-03T22:00:54.879Z,9.54
2023-02-03T22:03:38.046Z,9.55
2023-02-03T22:06:28.890Z,9.54
2023-02-03T22:08:58.897Z,9.50
2023-02-03T22:11:28.927Z,9.52
2023-02-03T22:13:57.058Z,9.48
2023-02-03T22:16:24.759Z,9.44
2023-02-03T22:18:52.439Z,9.42
2023-02-03T22:21:19.727Z,9.43
2023-02-03T22:23:47.405Z,9.37
2023-02-03T22:26:15.977Z,9.38
2023-02-03T22:28:43.538Z,9.35
2023-02-03T22:31:12.990Z,9.33
2023-02-03T22:33:41.378Z,9.32
2023-02-03T22:36:10.216Z,9.32
2023-02-03T22:38:39.329Z,9.31
2023-02-03T22:41:08.156Z,9.29
2023-02-03T22:43:35.551Z,9.30
2023-02-03T22:46:02.683Z,9.29
2023-02-03T22:48:30.479Z,9.25
2023-02-03T22:50:58.343Z,9.24
2023-02-03T22:53:27.494Z,9.23
2023-02-03T22:55:54.572Z,9.20
2023-02-03T22:58:21.797Z,9.23
2023-02-03T23:00:48.940Z,9.24
2023-02-03T23:03:16.163Z,9.22
2023-02-03T23:05:43.211Z,9.14
2023-02-03T23:08:10.420Z,9.17
2023-02-03T23:10:37.489Z,9.15
2023-02-03T23:13:04.627Z,9.11
2023-02-03T23:15:31.670Z,9.07
2023-02-03T23:17:58.766Z,9.09
2023-02-03T23:20:26.032Z,9.09
2023-02-03T23:22:53.037Z,9.06
2023-02-03T23:25:20.188Z,9.08
2023-02-03T23:27:47.196Z,9.08
2023-02-03T23:30:15.088Z,9.06
2023-02-03T23:32:42.248Z,9.10
2023-02-03T23:35:27.824Z,9.08
2023-02-03T23:37:54.882Z,9.08
2023-02-03T23:40:22.575Z,9.07
2023-02-03T23:42:49.909Z,9.02
2023-02-03T23:45:17.305Z,9.09
2023-02-03T23:47:46.052Z,9.09
2023-02-03T23:50:16.959Z,9.11
2023-02-03T23:52:43.969Z,9.08
2023-02-03T23:55:18.931Z,9.08
2023-02-03T23:57:46.335Z,9.02
